Search for airport 
image banner adimage banner adimage banner ad
image banner ad

2CA3 - Crosswinds

Located in Twentynine Palms, United States

ICAO - 2CA3, IATA -

Data provided by Airmate  

General information

Coordinates: N34°9'36" W115°59'51"
Elevation is 1835 feet MSL.
Magnetic variation is 14° East
View others Airports in California

Operational data

Special qualification required
Current time UTC:
Current local time:
Weather at : KNXP - Twentynine Palms Self ( 21 km )
METAR: KNXP 292156Z AUTO 27005KT 10SM CLR 39/07 A2992 RMK AO2 SLP089 T03940072
TAF: TAF KNXP 2921/3021 VRB06KT 9999 SKC QNH2990INS BECMG 3000/3002 24012KT 9999 SKC QNH2992INS BECMG 0308/0310 VRB05KT 9999 SKC QNH2995INS FM031830 12010KT 9999 SKC QNH2999INS TEMPO 0319/0321 14010G20KT T41/2923Z T28/3014Z
View NOTAMs / SUP AIP / TFR affecting this airport [VIEW]
Communications frequencies: [VIEW]

Runways:

RWY identifierQFULength (ft)Width (ft)SurfaceLDA (ft)
092600200EARTH
272600200EARTH
181400200EARTH
361400200EARTH

Airport contact information

Address: Twentynine Palms United States

Satellite view of 2CA3